sensor_id;sensor_type;location;lat;lon;timestamp;pressure;altitude;pressure_sealevel;temperature;humidity
59110;BME280;44895;47.438;18.978;2023-06-14T00:02:25;99806.91;;;11.62;100.00
59110;BME280;44895;47.438;18.978;2023-06-14T00:05:29;99808.09;;;11.70;100.00
59110;BME280;44895;47.438;18.978;2023-06-14T00:08:34;99805.38;;;11.70;100.00
59110;BME280;44895;47.438;18.978;2023-06-14T00:11:40;99803.72;;;11.83;100.00
59110;BME280;44895;47.438;18.978;2023-06-14T00:14:44;99804.78;;;11.73;100.00
59110;BME280;44895;47.438;18.978;2023-06-14T00:17:48;99809.91;;;11.74;100.00
59110;BME280;44895;47.438;18.978;2023-06-14T00:20:52;99810.81;;;11.70;100.00
59110;BME280;44895;47.438;18.978;2023-06-14T00:23:58;99817.44;;;11.78;100.00
59110;BME280;44895;47.438;18.978;2023-06-14T00:27:02;99823.44;;;11.66;100.00
59110;BME280;44895;47.438;18.978;2023-06-14T00:30:07;99818.69;;;11.94;100.00
59110;BME280;44895;47.438;18.978;2023-06-14T00:33:11;99814.78;;;11.86;100.00
59110;BME280;44895;47.438;18.978;2023-06-14T00:36:15;99822.88;;;11.78;100.00
59110;BME280;44895;47.438;18.978;2023-06-14T00:39:20;99819.69;;;11.75;100.00
59110;BME280;44895;47.438;18.978;2023-06-14T00:42:25;99822.50;;;11.70;100.00
59110;BME280;44895;47.438;18.978;2023-06-14T00:45:29;99816.19;;;11.61;100.00
59110;BME280;44895;47.438;18.978;2023-06-14T00:48:36;99829.50;;;11.49;100.00
59110;BME280;44895;47.438;18.978;2023-06-14T00:51:41;99819.66;;;11.53;100.00
59110;BME280;44895;47.438;18.978;2023-06-14T00:54:45;99827.09;;;11.47;100.00
59110;BME280;44895;47.438;18.978;2023-06-14T00:57:50;99816.03;;;11.43;100.00
59110;BME280;44895;47.438;18.978;2023-06-14T01:00:55;99823.97;;;11.40;100.00
59110;BME280;44895;47.438;18.978;2023-06-14T01:04:00;99811.28;;;11.49;100.00
59110;BME280;44895;47.438;18.978;2023-06-14T01:11:05;99825.84;;;11.67;100.00
59110;BME280;44895;47.438;18.978;2023-06-14T01:14:12;99816.63;;;11.54;100.00
59110;BME280;44895;47.438;18.978;2023-06-14T01:17:18;99814.41;;;11.56;100.00
59110;BME280;44895;47.438;18.978;2023-06-14T01:20:27;99809.56;;;11.53;100.00
59110;BME280;44895;47.438;18.978;2023-06-14T01:23:32;99813.03;;;11.68;100.00
59110;BME280;44895;47.438;18.978;2023-06-14T01:26:36;99812.97;;;11.59;100.00
59110;BME280;44895;47.438;18.978;2023-06-14T01:29:42;99810.00;;;11.33;100.00
59110;BME280;44895;47.438;18.978;2023-06-14T01:32:53;99812.63;;;11.38;100.00
59110;BME280;44895;47.438;18.978;2023-06-14T01:35:59;99811.59;;;11.48;100.00
59110;BME280;44895;47.438;18.978;2023-06-14T01:39:03;99820.88;;;11.47;100.00
59110;BME280;44895;47.438;18.978;2023-06-14T01:42:08;99820.66;;;11.43;100.00
59110;BME280;44895;47.438;18.978;2023-06-14T01:45:15;99820.78;;;11.38;100.00
59110;BME280;44895;47.438;18.978;2023-06-14T01:48:20;99825.69;;;11.50;100.00
59110;BME280;44895;47.438;18.978;2023-06-14T01:51:25;99816.94;;;11.39;100.00
59110;BME280;44895;47.438;18.978;2023-06-14T01:54:29;99830.63;;;11.48;100.00
59110;BME280;44895;47.438;18.978;2023-06-14T01:57:34;99829.09;;;11.55;100.00
59110;BME280;44895;47.438;18.978;2023-06-14T02:00:39;99825.94;;;11.62;100.00
59110;BME280;44895;47.438;18.978;2023-06-14T02:03:44;99825.09;;;11.53;100.00
59110;BME280;44895;47.438;18.978;2023-06-14T02:06:48;99827.59;;;11.49;100.00
59110;BME280;44895;47.438;18.978;2023-06-14T02:09:52;99836.56;;;11.50;100.00
59110;BME280;44895;47.438;18.978;2023-06-14T02:12:56;99832.97;;;11.40;100.00
59110;BME280;44895;47.438;18.978;2023-06-14T02:15:59;99835.47;;;11.37;100.00
59110;BME280;44895;47.438;18.978;2023-06-14T02:19:05;99831.56;;;11.29;100.00
59110;BME280;44895;47.438;18.978;2023-06-14T02:22:10;99830.94;;;11.32;100.00
59110;BME280;44895;47.438;18.978;2023-06-14T02:25:13;99832.66;;;11.42;100.00
59110;BME280;44895;47.438;18.978;2023-06-14T02:28:18;99828.53;;;11.31;100.00
59110;BME280;44895;47.438;18.978;2023-06-14T02:31:22;99834.69;;;11.36;100.00
59110;BME280;44895;47.438;18.978;2023-06-14T02:34:26;99838.63;;;11.30;100.00
59110;BME280;44895;47.438;18.978;2023-06-14T02:37:31;99833.88;;;11.36;100.00
59110;BME280;44895;47.438;18.978;2023-06-14T02:40:35;99834.28;;;11.29;100.00
59110;BME280;44895;47.438;18.978;2023-06-14T02:43:40;99834.16;;;11.34;100.00
59110;BME280;44895;47.438;18.978;2023-06-14T02:46:45;99839.53;;;11.25;100.00
59110;BME280;44895;47.438;18.978;2023-06-14T02:49:49;99842.31;;;11.34;100.00
59110;BME280;44895;47.438;18.978;2023-06-14T02:52:54;99829.72;;;11.38;100.00
59110;BME280;44895;47.438;18.978;2023-06-14T02:56:00;99836.50;;;11.27;100.00
59110;BME280;44895;47.438;18.978;2023-06-14T02:59:06;99834.84;;;11.40;100.00
59110;BME280;44895;47.438;18.978;2023-06-14T03:02:11;99840.50;;;11.30;100.00
59110;BME280;44895;47.438;18.978;2023-06-14T03:05:15;99839.09;;;11.32;100.00
59110;BME280;44895;47.438;18.978;2023-06-14T03:08:20;99838.63;;;11.30;100.00
59110;BME280;44895;47.438;18.978;2023-06-14T03:11:28;99831.25;;;11.31;100.00
59110;BME280;44895;47.438;18.978;2023-06-14T03:14:33;99834.53;;;11.55;100.00
59110;BME280;44895;47.438;18.978;2023-06-14T03:17:39;99837.38;;;11.50;100.00
59110;BME280;44895;47.438;18.978;2023-06-14T03:20:43;99833.53;;;11.51;100.00
59110;BME280;44895;47.438;18.978;2023-06-14T03:23:49;99835.97;;;11.53;100.00
59110;BME280;44895;47.438;18.978;2023-06-14T03:26:54;99827.81;;;11.53;100.00
59110;BME280;44895;47.438;18.978;2023-06-14T03:29:59;99836.94;;;11.57;100.00
59110;BME280;44895;47.438;18.978;2023-06-14T03:33:04;99838.56;;;11.58;100.00
59110;BME280;44895;47.438;18.978;2023-06-14T03:36:10;99844.69;;;11.64;100.00
59110;BME280;44895;47.438;18.978;2023-06-14T03:39:14;99831.41;;;11.62;100.00
59110;BME280;44895;47.438;18.978;2023-06-14T03:42:19;99840.19;;;11.82;100.00
59110;BME280;44895;47.438;18.978;2023-06-14T03:45:24;99848.72;;;11.89;100.00
59110;BME280;44895;47.438;18.978;2023-06-14T03:48:29;99846.31;;;11.87;100.00
59110;BME280;44895;47.438;18.978;2023-06-14T03:51:33;99844.94;;;12.13;100.00
59110;BME280;44895;47.438;18.978;2023-06-14T03:54:39;99844.44;;;12.11;100.00
59110;BME280;44895;47.438;18.978;2023-06-14T03:57:45;99842.03;;;12.32;100.00
59110;BME280;44895;47.438;18.978;2023-06-14T04:00:53;99849.28;;;12.36;100.00
59110;BME280;44895;47.438;18.978;2023-06-14T04:03:57;99848.59;;;12.62;100.00
59110;BME280;44895;47.438;18.978;2023-06-14T04:07:03;99857.34;;;12.82;100.00
59110;BME280;44895;47.438;18.978;2023-06-14T04:10:09;99858.38;;;12.95;100.00
59110;BME280;44895;47.438;18.978;2023-06-14T04:13:13;99855.53;;;13.09;100.00
59110;BME280;44895;47.438;18.978;2023-06-14T04:16:17;99861.50;;;13.28;100.00
59110;BME280;44895;47.438;18.978;2023-06-14T04:19:21;99863.38;;;13.59;100.00
59110;BME280;44895;47.438;18.978;2023-06-14T04:22:26;99866.09;;;13.85;100.00
59110;BME280;44895;47.438;18.978;2023-06-14T04:25:36;99867.53;;;13.74;100.00
59110;BME280;44895;47.438;18.978;2023-06-14T04:28:41;99862.91;;;13.92;100.00
59110;BME280;44895;47.438;18.978;2023-06-14T04:31:46;99861.78;;;13.93;100.00
59110;BME280;44895;47.438;18.978;2023-06-14T04:34:53;99867.56;;;14.09;100.00
59110;BME280;44895;47.438;18.978;2023-06-14T04:37:58;99864.66;;;14.14;100.00
59110;BME280;44895;47.438;18.978;2023-06-14T04:41:04;99867.06;;;14.16;100.00
59110;BME280;44895;47.438;18.978;2023-06-14T04:44:10;99865.59;;;14.36;100.00
59110;BME280;44895;47.438;18.978;2023-06-14T04:47:18;99876.66;;;14.48;100.00
59110;BME280;44895;47.438;18.978;2023-06-14T04:50:22;99863.47;;;14.59;100.00
59110;BME280;44895;47.438;18.978;2023-06-14T04:53:27;99862.47;;;14.64;100.00
59110;BME280;44895;47.438;18.978;2023-06-14T04:56:33;99864.25;;;14.68;100.00
59110;BME280;44895;47.438;18.978;2023-06-14T04:59:38;99870.31;;;14.83;100.00
59110;BME280;44895;47.438;18.978;2023-06-14T05:02:42;99868.19;;;14.97;100.00
59110;BME280;44895;47.438;18.978;2023-06-14T05:05:46;99872.13;;;15.18;100.00
59110;BME280;44895;47.438;18.978;2023-06-14T05:08:50;99874.31;;;15.24;100.00
59110;BME280;44895;47.438;18.978;2023-06-14T05:11:54;99858.47;;;15.39;100.00
59110;BME280;44895;47.438;18.978;2023-06-14T05:14:58;99850.63;;;16.01;100.00
59110;BME280;44895;47.438;18.978;2023-06-14T05:18:03;99863.78;;;19.06;100.00
59110;BME280;44895;47.438;18.978;2023-06-14T05:21:07;99843.00;;;26.52;83.00
59110;BME280;44895;47.438;18.978;2023-06-14T05:24:11;99842.19;;;28.94;53.76
59110;BME280;44895;47.438;18.978;2023-06-14T05:27:16;99857.25;;;32.25;44.04
59110;BME280;44895;47.438;18.978;2023-06-14T05:30:20;99845.03;;;33.85;40.92
59110;BME280;44895;47.438;18.978;2023-06-14T05:33:24;99848.06;;;34.31;38.68
59110;BME280;44895;47.438;18.978;2023-06-14T05:36:28;99847.69;;;33.88;35.75
59110;BME280;44895;47.438;18.978;2023-06-14T05:39:32;99854.09;;;29.22;45.86
59110;BME280;44895;47.438;18.978;2023-06-14T05:42:36;99849.09;;;31.00;41.67
59110;BME280;44895;47.438;18.978;2023-06-14T05:45:40;99838.72;;;35.21;35.96
59110;BME280;44895;47.438;18.978;2023-06-14T05:48:44;99850.06;;;32.62;36.38
59110;BME280;44895;47.438;18.978;2023-06-14T05:51:48;99847.53;;;33.83;36.50
59110;BME280;44895;47.438;18.978;2023-06-14T05:54:52;99844.13;;;37.15;31.57
59110;BME280;44895;47.438;18.978;2023-06-14T05:57:55;99851.53;;;36.30;32.61
59110;BME280;44895;47.438;18.978;2023-06-14T06:01:00;99850.59;;;34.98;33.92
59110;BME280;44895;47.438;18.978;2023-06-14T06:04:04;99839.81;;;37.44;30.72
59110;BME280;44895;47.438;18.978;2023-06-14T06:07:08;99846.47;;;37.16;31.12
59110;BME280;44895;47.438;18.978;2023-06-14T06:10:12;99839.81;;;39.95;28.31
59110;BME280;44895;47.438;18.978;2023-06-14T06:13:16;99837.31;;;38.26;29.18
59110;BME280;44895;47.438;18.978;2023-06-14T06:16:20;99842.94;;;35.07;33.24
59110;BME280;44895;47.438;18.978;2023-06-14T06:19:24;99853.03;;;31.91;37.51
59110;BME280;44895;47.438;18.978;2023-06-14T06:22:29;99847.56;;;35.85;33.04
59110;BME280;44895;47.438;18.978;2023-06-14T06:25:33;99844.53;;;35.55;32.37
59110;BME280;44895;47.438;18.978;2023-06-14T06:28:37;99844.91;;;37.99;29.60
59110;BME280;44895;47.438;18.978;2023-06-14T06:31:42;99853.69;;;36.35;31.94
59110;BME280;44895;47.438;18.978;2023-06-14T06:34:45;99843.22;;;35.84;31.41
59110;BME280;44895;47.438;18.978;2023-06-14T06:37:49;99852.19;;;31.35;36.89
59110;BME280;44895;47.438;18.978;2023-06-14T06:40:53;99854.00;;;29.89;39.60
59110;BME280;44895;47.438;18.978;2023-06-14T06:43:58;99860.94;;;26.51;47.50
59110;BME280;44895;47.438;18.978;2023-06-14T06:47:06;99860.19;;;25.40;54.86
59110;BME280;44895;47.438;18.978;2023-06-14T06:50:10;99872.75;;;24.08;60.32
59110;BME280;44895;47.438;18.978;2023-06-14T06:53:14;99867.44;;;23.70;68.24
59110;BME280;44895;47.438;18.978;2023-06-14T06:56:18;99871.13;;;23.26;75.20
59110;BME280;44895;47.438;18.978;2023-06-14T06:59:23;99870.19;;;22.66;81.30
59110;BME280;44895;47.438;18.978;2023-06-14T07:02:27;99883.59;;;22.60;79.50
59110;BME280;44895;47.438;18.978;2023-06-14T07:05:31;99879.47;;;22.09;84.80
59110;BME280;44895;47.438;18.978;2023-06-14T07:08:35;99878.31;;;21.53;99.43
59110;BME280;44895;47.438;18.978;2023-06-14T07:11:40;99866.72;;;22.01;97.79
59110;BME280;44895;47.438;18.978;2023-06-14T07:14:44;99873.97;;;22.88;88.21
59110;BME280;44895;47.438;18.978;2023-06-14T07:17:48;99868.69;;;22.72;78.56
59110;BME280;44895;47.438;18.978;2023-06-14T07:20:53;99871.25;;;22.16;91.83
59110;BME280;44895;47.438;18.978;2023-06-14T07:23:57;99876.56;;;21.98;95.65
59110;BME280;44895;47.438;18.978;2023-06-14T07:27:02;99875.81;;;21.44;100.00
59110;BME280;44895;47.438;18.978;2023-06-14T07:30:08;99878.13;;;21.12;100.00
59110;BME280;44895;47.438;18.978;2023-06-14T07:33:13;99867.75;;;21.05;100.00
59110;BME280;44895;47.438;18.978;2023-06-14T07:36:17;99872.19;;;20.87;100.00
59110;BME280;44895;47.438;18.978;2023-06-14T07:39:21;99880.78;;;20.81;100.00
59110;BME280;44895;47.438;18.978;2023-06-14T07:42:26;99886.44;;;20.69;100.00
59110;BME280;44895;47.438;18.978;2023-06-14T07:45:30;99888.88;;;20.71;100.00
59110;BME280;44895;47.438;18.978;2023-06-14T07:48:35;99883.78;;;20.73;100.00
59110;BME280;44895;47.438;18.978;2023-06-14T07:51:39;99887.69;;;21.18;100.00
59110;BME280;44895;47.438;18.978;2023-06-14T07:54:43;99886.66;;;21.03;100.00
59110;BME280;44895;47.438;18.978;2023-06-14T07:57:48;99894.09;;;20.99;100.00
59110;BME280;44895;47.438;18.978;2023-06-14T08:00:52;99896.56;;;21.08;100.00
59110;BME280;44895;47.438;18.978;2023-06-14T08:03:56;99894.31;;;21.40;100.00
59110;BME280;44895;47.438;18.978;2023-06-14T08:07:00;99899.97;;;21.47;100.00
59110;BME280;44895;47.438;18.978;2023-06-14T08:10:05;99898.78;;;21.48;100.00
59110;BME280;44895;47.438;18.978;2023-06-14T08:13:10;99891.25;;;21.72;99.96
59110;BME280;44895;47.438;18.978;2023-06-14T08:16:14;99890.69;;;21.59;100.00
59110;BME280;44895;47.438;18.978;2023-06-14T08:19:18;99896.63;;;21.11;100.00
59110;BME280;44895;47.438;18.978;2023-06-14T08:22:23;99891.47;;;21.10;100.00
59110;BME280;44895;47.438;18.978;2023-06-14T08:25:28;99891.09;;;21.34;100.00
59110;BME280;44895;47.438;18.978;2023-06-14T08:28:32;99888.84;;;21.17;100.00
59110;BME280;44895;47.438;18.978;2023-06-14T08:31:36;99902.16;;;21.11;100.00
59110;BME280;44895;47.438;18.978;2023-06-14T08:34:40;99897.66;;;21.26;100.00
59110;BME280;44895;47.438;18.978;2023-06-14T08:37:45;99897.91;;;21.17;100.00
59110;BME280;44895;47.438;18.978;2023-06-14T08:40:51;99911.00;;;21.21;100.00
59110;BME280;44895;47.438;18.978;2023-06-14T08:43:56;99913.97;;;20.85;100.00
59110;BME280;44895;47.438;18.978;2023-06-14T08:47:00;99917.50;;;20.85;100.00
59110;BME280;44895;47.438;18.978;2023-06-14T08:50:05;99917.94;;;21.11;100.00
59110;BME280;44895;47.438;18.978;2023-06-14T08:53:11;99926.66;;;21.13;100.00
59110;BME280;44895;47.438;18.978;2023-06-14T08:56:20;99924.19;;;21.08;100.00
59110;BME280;44895;47.438;18.978;2023-06-14T08:59:26;99941.25;;;21.13;100.00
59110;BME280;44895;47.438;18.978;2023-06-14T09:02:32;99936.75;;;21.05;100.00
59110;BME280;44895;47.438;18.978;2023-06-14T09:05:38;99938.22;;;21.22;100.00
59110;BME280;44895;47.438;18.978;2023-06-14T09:08:43;99940.22;;;21.48;100.00
59110;BME280;44895;47.438;18.978;2023-06-14T09:11:52;99939.88;;;21.77;100.00
59110;BME280;44895;47.438;18.978;2023-06-14T09:14:56;99936.84;;;21.86;100.00
59110;BME280;44895;47.438;18.978;2023-06-14T09:18:03;99936.66;;;21.71;100.00
59110;BME280;44895;47.438;18.978;2023-06-14T09:21:07;99931.13;;;21.48;100.00
59110;BME280;44895;47.438;18.978;2023-06-14T09:24:13;99931.72;;;21.57;100.00
59110;BME280;44895;47.438;18.978;2023-06-14T09:27:18;99931.97;;;21.52;100.00
59110;BME280;44895;47.438;18.978;2023-06-14T09:30:22;99929.44;;;21.40;100.00
59110;BME280;44895;47.438;18.978;2023-06-14T09:33:26;99935.31;;;21.38;100.00
59110;BME280;44895;47.438;18.978;2023-06-14T09:36:32;99925.81;;;21.35;100.00
59110;BME280;44895;47.438;18.978;2023-06-14T09:39:49;99922.22;;;21.58;100.00
59110;BME280;44895;47.438;18.978;2023-06-14T09:42:53;99910.97;;;21.71;100.00
59110;BME280;44895;47.438;18.978;2023-06-14T09:46:02;99916.81;;;21.65;100.00
59110;BME280;44895;47.438;18.978;2023-06-14T09:49:08;99910.41;;;21.58;100.00
59110;BME280;44895;47.438;18.978;2023-06-14T09:52:19;99912.63;;;21.52;100.00
59110;BME280;44895;47.438;18.978;2023-06-14T09:55:25;99903.88;;;21.46;100.00
59110;BME280;44895;47.438;18.978;2023-06-14T09:58:34;99905.66;;;21.58;100.00
59110;BME280;44895;47.438;18.978;2023-06-14T10:01:44;99916.44;;;21.67;100.00
59110;BME280;44895;47.438;18.978;2023-06-14T10:05:11;99907.28;;;21.90;94.70
59110;BME280;44895;47.438;18.978;2023-06-14T10:08:20;99915.47;;;21.82;93.19
59110;BME280;44895;47.438;18.978;2023-06-14T10:11:29;99916.69;;;21.85;90.25
59110;BME280;44895;47.438;18.978;2023-06-14T10:14:33;99915.47;;;21.82;83.73
59110;BME280;44895;47.438;18.978;2023-06-14T10:17:52;99898.03;;;21.78;86.24
59110;BME280;44895;47.438;18.978;2023-06-14T10:24:18;99903.78;;;21.96;91.69
59110;BME280;44895;47.438;18.978;2023-06-14T10:27:23;99904.03;;;22.14;94.44
59110;BME280;44895;47.438;18.978;2023-06-14T10:30:28;99898.78;;;22.06;82.44
59110;BME280;44895;47.438;18.978;2023-06-14T10:34:20;99890.41;;;21.98;80.48
59110;BME280;44895;47.438;18.978;2023-06-14T10:37:12;99893.03;;;22.18;80.48
59110;BME280;44895;47.438;18.978;2023-06-14T10:40:34;99888.69;;;22.21;74.70
59110;BME280;44895;47.438;18.978;2023-06-14T10:43:38;99889.25;;;22.34;76.64
59110;BME280;44895;47.438;18.978;2023-06-14T10:46:47;99896.50;;;22.45;64.43
59110;BME280;44895;47.438;18.978;2023-06-14T10:49:53;99891.94;;;22.64;61.58
59110;BME280;44895;47.438;18.978;2023-06-14T10:52:57;99888.25;;;22.90;66.00
59110;BME280;44895;47.438;18.978;2023-06-14T10:56:06;99878.66;;;22.80;54.85
59110;BME280;44895;47.438;18.978;2023-06-14T10:59:10;99873.03;;;22.73;58.46
59110;BME280;44895;47.438;18.978;2023-06-14T11:12:10;99864.78;;;22.77;58.32
59110;BME280;44895;47.438;18.978;2023-06-14T11:15:15;99868.31;;;22.77;57.12
59110;BME280;44895;47.438;18.978;2023-06-14T11:18:21;99867.03;;;22.64;57.34
59110;BME280;44895;47.438;18.978;2023-06-14T11:21:28;99865.19;;;22.79;61.10
59110;BME280;44895;47.438;18.978;2023-06-14T11:24:34;99872.06;;;22.96;57.60
59110;BME280;44895;47.438;18.978;2023-06-14T11:27:41;99860.91;;;22.85;57.69
59110;BME280;44895;47.438;18.978;2023-06-14T11:30:45;99872.50;;;23.05;55.42
59110;BME280;44895;47.438;18.978;2023-06-14T11:33:50;99867.97;;;23.27;54.39
59110;BME280;44895;47.438;18.978;2023-06-14T11:36:55;99866.13;;;23.50;55.36
59110;BME280;44895;47.438;18.978;2023-06-14T11:40:00;99864.91;;;23.43;51.49
59110;BME280;44895;47.438;18.978;2023-06-14T11:43:04;99859.41;;;23.51;53.08
59110;BME280;44895;47.438;18.978;2023-06-14T11:46:14;99839.59;;;23.45;54.44
59110;BME280;44895;47.438;18.978;2023-06-14T11:49:25;99857.47;;;23.62;55.66
59110;BME280;44895;47.438;18.978;2023-06-14T11:52:32;99860.63;;;23.57;53.94
59110;BME280;44895;47.438;18.978;2023-06-14T11:55:37;99855.50;;;23.66;54.88
59110;BME280;44895;47.438;18.978;2023-06-14T11:58:45;99853.91;;;23.58;52.05
59110;BME280;44895;47.438;18.978;2023-06-14T12:01:49;99859.97;;;23.15;51.41
59110;BME280;44895;47.438;18.978;2023-06-14T12:04:53;99860.97;;;22.96;53.20
59110;BME280;44895;47.438;18.978;2023-06-14T12:08:06;99864.47;;;22.86;55.70
59110;BME280;44895;47.438;18.978;2023-06-14T12:11:12;99866.38;;;22.78;52.67
59110;BME280;44895;47.438;18.978;2023-06-14T12:14:17;99863.94;;;23.18;51.45
59110;BME280;44895;47.438;18.978;2023-06-14T12:17:21;99863.84;;;23.10;51.50
59110;BME280;44895;47.438;18.978;2023-06-14T12:20:29;99861.59;;;22.71;48.57
59110;BME280;44895;47.438;18.978;2023-06-14T12:23:43;99866.22;;;22.63;49.72
59110;BME280;44895;47.438;18.978;2023-06-14T12:26:47;99859.47;;;22.61;53.35
59110;BME280;44895;47.438;18.978;2023-06-14T12:30:04;99863.84;;;22.62;53.31
59110;BME280;44895;47.438;18.978;2023-06-14T12:33:11;99872.22;;;22.69;58.32
59110;BME280;44895;47.438;18.978;2023-06-14T12:36:15;99860.25;;;22.58;57.78
59110;BME280;44895;47.438;18.978;2023-06-14T12:39:20;99873.66;;;22.56;58.08
59110;BME280;44895;47.438;18.978;2023-06-14T12:42:24;99875.31;;;22.60;59.77
59110;BME280;44895;47.438;18.978;2023-06-14T12:45:28;99878.97;;;22.72;67.49
59110;BME280;44895;47.438;18.978;2023-06-14T12:48:32;99868.38;;;22.81;62.53
59110;BME280;44895;47.438;18.978;2023-06-14T12:51:41;99866.22;;;22.63;61.59
59110;BME280;44895;47.438;18.978;2023-06-14T12:54:45;99863.06;;;22.61;62.64
59110;BME280;44895;47.438;18.978;2023-06-14T12:57:48;99858.75;;;22.64;62.98
59110;BME280;44895;47.438;18.978;2023-06-14T13:00:52;99851.09;;;22.50;65.96
59110;BME280;44895;47.438;18.978;2023-06-14T13:03:56;99853.94;;;22.57;68.49
59110;BME280;44895;47.438;18.978;2023-06-14T13:07:00;99856.78;;;22.68;71.37
59110;BME280;44895;47.438;18.978;2023-06-14T13:10:05;99853.22;;;22.64;74.59
59110;BME280;44895;47.438;18.978;2023-06-14T13:13:09;99853.06;;;22.50;76.28
59110;BME280;44895;47.438;18.978;2023-06-14T13:16:15;99866.94;;;22.53;74.93
59110;BME280;44895;47.438;18.978;2023-06-14T13:19:19;99871.97;;;22.44;73.65
59110;BME280;44895;47.438;18.978;2023-06-14T13:22:23;99870.00;;;22.44;72.23
59110;BME280;44895;47.438;18.978;2023-06-14T13:25:27;99858.53;;;22.42;73.74
59110;BME280;44895;47.438;18.978;2023-06-14T13:28:31;99861.03;;;22.58;69.13
59110;BME280;44895;47.438;18.978;2023-06-14T13:31:36;99861.91;;;22.66;70.42
59110;BME280;44895;47.438;18.978;2023-06-14T13:34:40;99857.06;;;22.56;72.27
59110;BME280;44895;47.438;18.978;2023-06-14T13:37:44;99857.88;;;22.56;72.61
59110;BME280;44895;47.438;18.978;2023-06-14T13:40:48;99849.28;;;22.65;72.35
59110;BME280;44895;47.438;18.978;2023-06-14T13:43:52;99853.72;;;22.77;77.65
59110;BME280;44895;47.438;18.978;2023-06-14T13:46:56;99842.66;;;22.80;68.42
59110;BME280;44895;47.438;18.978;2023-06-14T13:50:00;99847.88;;;22.89;68.65
59110;BME280;44895;47.438;18.978;2023-06-14T13:53:04;99848.09;;;22.70;67.45
59110;BME280;44895;47.438;18.978;2023-06-14T13:56:09;99844.91;;;22.64;69.46
59110;BME280;44895;47.438;18.978;2023-06-14T13:59:13;99836.66;;;22.71;72.14
59110;BME280;44895;47.438;18.978;2023-06-14T14:02:18;99837.91;;;22.81;75.94
59110;BME280;44895;47.438;18.978;2023-06-14T14:05:22;99842.50;;;22.59;73.25
59110;BME280;44895;47.438;18.978;2023-06-14T14:08:32;99834.06;;;22.48;78.73
59110;BME280;44895;47.438;18.978;2023-06-14T14:11:36;99845.84;;;22.38;80.59
59110;BME280;44895;47.438;18.978;2023-06-14T14:14:40;99842.91;;;22.27;81.41
59110;BME280;44895;47.438;18.978;2023-06-14T14:17:44;99840.16;;;22.27;75.86
59110;BME280;44895;47.438;18.978;2023-06-14T14:20:48;99841.00;;;22.31;74.85
59110;BME280;44895;47.438;18.978;2023-06-14T14:23:52;99839.53;;;22.37;75.64
59110;BME280;44895;47.438;18.978;2023-06-14T14:26:56;99838.75;;;22.40;79.20
59110;BME280;44895;47.438;18.978;2023-06-14T14:30:04;99850.50;;;22.34;82.85
59110;BME280;44895;47.438;18.978;2023-06-14T14:33:08;99849.66;;;22.26;71.65
59110;BME280;44895;47.438;18.978;2023-06-14T14:36:12;99848.66;;;22.07;69.95
59110;BME280;44895;47.438;18.978;2023-06-14T14:39:17;99843.50;;;22.06;67.84
59110;BME280;44895;47.438;18.978;2023-06-14T14:42:21;99839.91;;;22.02;65.63
59110;BME280;44895;47.438;18.978;2023-06-14T14:45:25;99839.22;;;22.12;70.97
59110;BME280;44895;47.438;18.978;2023-06-14T14:48:29;99842.00;;;22.12;64.70
59110;BME280;44895;47.438;18.978;2023-06-14T14:51:33;99842.34;;;22.10;66.55
59110;BME280;44895;47.438;18.978;2023-06-14T14:54:37;99845.44;;;22.05;69.70
59110;BME280;44895;47.438;18.978;2023-06-14T14:57:41;99834.66;;;21.93;69.74
59110;BME280;44895;47.438;18.978;2023-06-14T15:00:47;99840.09;;;21.86;68.53
59110;BME280;44895;47.438;18.978;2023-06-14T15:03:52;99838.22;;;21.93;69.55
59110;BME280;44895;47.438;18.978;2023-06-14T15:06:57;99836.94;;;21.87;66.09
59110;BME280;44895;47.438;18.978;2023-06-14T15:10:02;99839.72;;;21.87;67.20
59110;BME280;44895;47.438;18.978;2023-06-14T15:13:07;99831.03;;;21.85;69.52
59110;BME280;44895;47.438;18.978;2023-06-14T15:16:11;99837.91;;;21.68;64.89
59110;BME280;44895;47.438;18.978;2023-06-14T15:19:17;99824.03;;;21.64;70.56
59110;BME280;44895;47.438;18.978;2023-06-14T15:22:22;99823.69;;;21.39;65.75
59110;BME280;44895;47.438;18.978;2023-06-14T15:25:29;99832.91;;;21.50;69.89
59110;BME280;44895;47.438;18.978;2023-06-14T15:28:35;99834.03;;;21.46;70.41
59110;BME280;44895;47.438;18.978;2023-06-14T15:31:39;99828.88;;;21.44;73.64
59110;BME280;44895;47.438;18.978;2023-06-14T15:34:43;99831.97;;;21.39;69.31
59110;BME280;44895;47.438;18.978;2023-06-14T15:37:47;99821.63;;;21.32;67.68
59110;BME280;44895;47.438;18.978;2023-06-14T15:40:51;99818.06;;;21.32;67.95
59110;BME280;44895;47.438;18.978;2023-06-14T15:43:55;99820.72;;;21.25;69.91
59110;BME280;44895;47.438;18.978;2023-06-14T15:46:59;99823.75;;;21.16;66.68
59110;BME280;44895;47.438;18.978;2023-06-14T15:50:03;99824.97;;;21.18;67.05
59110;BME280;44895;47.438;18.978;2023-06-14T15:53:11;99826.63;;;21.23;68.56
59110;BME280;44895;47.438;18.978;2023-06-14T15:56:15;99829.41;;;21.27;73.67
59110;BME280;44895;47.438;18.978;2023-06-14T15:59:19;99828.25;;;21.28;65.88
59110;BME280;44895;47.438;18.978;2023-06-14T16:02:23;99826.94;;;21.18;65.88
59110;BME280;44895;47.438;18.978;2023-06-14T16:05:27;99829.47;;;21.04;61.73
59110;BME280;44895;47.438;18.978;2023-06-14T16:08:31;99835.81;;;21.04;66.21
59110;BME280;44895;47.438;18.978;2023-06-14T16:11:35;99839.28;;;21.01;66.48
59110;BME280;44895;47.438;18.978;2023-06-14T16:14:39;99843.97;;;20.97;62.36
59110;BME280;44895;47.438;18.978;2023-06-14T16:17:43;99834.53;;;20.98;63.44
59110;BME280;44895;47.438;18.978;2023-06-14T16:20:47;99838.38;;;20.93;63.33